Time;durP1;ratioP1;P1;durP2;ratioP2;P2;SDS_P1;SDS_P2;PMS_P1;PMS_P2;Temp;Humidity;BMP_temperature;BMP_pressure;BME280_temperature;BME280_humidity;BME280_pressure;Samples;Min_cycle;Max_cycle;Signal;HPM_P1;HPM_P2
2022/04/28 00:01:30;;;;;;;7.40;6.63;;;;;;;18.66;52.99;94493.63;5081169;28;20174;-74
2022/04/28 00:03:55;;;;;;;6.53;5.87;;;;;;;18.93;52.45;94496.31;5096545;28;20186;-74
2022/04/28 00:06:20;;;;;;;8.70;5.63;;;;;;;18.73;52.74;94499.53;5079372;28;20210;-74
2022/04/28 00:08:46;;;;;;;6.20;5.60;;;;;;;18.71;53.02;94501.66;5073078;28;20201;-74
2022/04/28 00:11:11;;;;;;;6.53;5.80;;;;;;;18.19;54.79;94492.25;5069131;28;20261;-74
2022/04/28 00:13:38;;;;;;;8.60;6.37;;;;;;;18.38;54.33;94500.72;5081324;28;20173;-74
2022/04/28 00:16:04;;;;;;;8.37;6.73;;;;;;;18.44;54.01;94494.44;5070416;28;20179;-73
2022/04/28 00:18:29;;;;;;;8.97;7.03;;;;;;;18.53;53.26;94495.63;5064431;28;20433;-74
2022/04/28 00:20:55;;;;;;;10.87;6.40;;;;;;;18.43;53.78;94500.78;5078408;28;20505;-74
2022/04/28 00:23:20;;;;;;;7.47;5.77;;;;;;;18.49;54.11;94504.31;5075170;28;20616;-74
2022/04/28 00:25:46;;;;;;;7.87;6.50;;;;;;;18.62;53.84;94503.91;5075510;28;20256;-74
2022/04/28 00:28:11;;;;;;;7.70;6.93;;;;;;;18.47;54.24;94501.88;5072106;28;20189;-74
2022/04/28 00:30:36;;;;;;;7.10;6.33;;;;;;;18.04;55.62;94495.53;5078322;28;20183;-74
2022/04/28 00:33:02;;;;;;;7.90;6.03;;;;;;;18.27;54.40;94504.31;5082430;28;20244;-73
2022/04/28 00:35:27;;;;;;;9.33;6.53;;;;;;;18.23;55.03;94505.81;5080919;28;20178;-74
2022/04/28 00:37:53;;;;;;;9.97;6.43;;;;;;;18.21;54.99;94507.91;5066289;28;20170;-74
2022/04/28 00:40:18;;;;;;;8.23;6.20;;;;;;;17.92;55.73;94510.72;5070334;28;20190;-74
2022/04/28 00:42:44;;;;;;;8.60;6.33;;;;;;;18.17;55.61;94512.91;5080388;28;20174;-74
2022/04/28 00:45:09;;;;;;;6.40;6.00;;;;;;;17.75;56.77;94511.50;5071835;28;20194;-75
2022/04/28 00:53:07;;;;;;;7.00;6.40;;;;;;;17.36;58.05;94524.66;5064033;28;20440;-74
2022/04/28 00:55:33;;;;;;;9.90;7.80;;;;;;;17.28;58.25;94526.91;5063974;28;21046;-74
2022/04/28 00:57:59;;;;;;;9.40;7.40;;;;;;;17.14;58.97;94526.41;5080242;28;20416;-74
2022/04/28 01:00:24;;;;;;;6.90;6.30;;;;;;;17.13;58.96;94530.06;5075199;28;20178;-74
2022/04/28 01:02:50;;;;;;;18.63;7.20;;;;;;;17.05;59.29;94527.81;5099818;28;20242;-74
2022/04/28 01:05:16;;;;;;;8.07;7.03;;;;;;;17.22;58.79;94533.94;5073846;28;20207;-74
2022/04/28 01:07:41;;;;;;;6.67;6.03;;;;;;;17.05;59.28;94525.19;5067249;28;20456;-74
2022/04/28 01:10:07;;;;;;;8.33;6.30;;;;;;;16.90;60.08;94537.09;5072894;28;20208;-74
2022/04/28 01:12:33;;;;;;;8.30;6.80;;;;;;;16.46;61.33;94526.16;5083242;28;20177;-74
2022/04/28 01:14:58;;;;;;;6.93;6.33;;;;;;;16.93;59.88;94531.31;5064703;28;20468;-74
2022/04/28 01:17:24;;;;;;;8.17;6.87;;;;;;;16.77;60.46;94537.34;5073141;28;20182;-74
2022/04/28 01:19:49;;;;;;;7.57;6.83;;;;;;;16.88;60.17;94541.78;5071475;28;20242;-74
2022/04/28 01:22:14;;;;;;;8.60;6.90;;;;;;;16.91;60.51;94537.88;5080423;28;20188;-74
2022/04/28 01:24:40;;;;;;;7.47;6.97;;;;;;;16.77;61.11;94540.00;5069340;28;20385;-74
2022/04/28 01:27:06;;;;;;;9.70;7.33;;;;;;;16.69;61.19;94540.34;5073431;28;20232;-74
2022/04/28 01:29:33;;;;;;;8.20;7.60;;;;;;;16.59;61.55;94544.38;5069813;28;20207;-74
2022/04/28 01:31:59;;;;;;;9.17;7.20;;;;;;;16.72;60.98;94545.16;5089181;28;20427;-73
2022/04/28 01:34:24;;;;;;;8.73;7.97;;;;;;;16.81;60.80;94542.94;5067222;28;20427;-74
2022/04/28 01:36:49;;;;;;;9.17;7.80;;;;;;;16.58;61.76;94542.00;5069548;28;20187;-74
2022/04/28 01:39:15;;;;;;;8.17;7.37;;;;;;;16.98;60.25;94547.28;5065808;28;20193;-74
2022/04/28 01:41:40;;;;;;;8.53;7.73;;;;;;;16.84;61.10;94548.59;5073847;28;20178;-74
2022/04/28 01:44:06;;;;;;;8.10;7.30;;;;;;;16.76;61.22;94546.31;5071170;28;20556;-74
2022/04/28 01:46:31;;;;;;;10.13;8.07;;;;;;;16.87;61.02;94550.78;5062840;28;20178;-74
2022/04/28 01:48:57;;;;;;;8.00;7.30;;;;;;;17.00;60.83;94546.22;5065653;28;20550;-74
2022/04/28 01:56:58;;;;;;;8.87;7.80;;;;;;;17.00;60.68;94551.50;5059507;28;20934;-74
2022/04/28 01:59:24;;;;;;;13.97;8.53;;;;;;;17.07;60.25;94558.25;5087566;28;20424;-74
2022/04/28 02:01:49;;;;;;;13.53;7.60;;;;;;;17.15;60.43;94554.47;5075202;28;20413;-74
2022/04/28 02:04:14;;;;;;;8.63;6.80;;;;;;;16.95;60.99;94565.47;5067456;28;20179;-74
2022/04/28 02:06:41;;;;;;;7.50;6.90;;;;;;;17.00;61.16;94552.34;5082701;28;20419;-74
2022/04/28 02:09:06;;;;;;;9.23;6.63;;;;;;;16.76;61.34;94555.03;5086866;28;20193;-74
2022/04/28 02:11:31;;;;;;;13.40;7.30;;;;;;;16.67;62.04;94558.28;5076725;28;20459;-74
2022/04/28 02:13:57;;;;;;;9.60;7.07;;;;;;;16.53;62.63;94560.38;5072187;28;20204;-75
2022/04/28 02:16:22;;;;;;;7.20;6.60;;;;;;;16.72;62.26;94566.31;5067266;28;20620;-75
2022/04/28 02:18:48;;;;;;;14.70;7.50;;;;;;;17.10;61.03;94565.72;5081770;28;20189;-74
2022/04/28 02:21:13;;;;;;;7.93;7.17;;;;;;;17.23;60.36;94562.00;5079294;28;20186;-74
2022/04/28 02:23:38;;;;;;;6.77;6.17;;;;;;;16.76;61.47;94572.72;5077846;28;20186;-74
2022/04/28 02:26:04;;;;;;;7.20;6.57;;;;;;;16.57;62.19;94564.97;5066568;28;20178;-74
2022/04/28 02:28:29;;;;;;;6.23;5.47;;;;;;;16.48;62.68;94576.91;5066799;28;20562;-74
2022/04/28 02:30:55;;;;;;;8.10;7.33;;;;;;;16.70;61.87;94576.31;5076896;28;20188;-74
2022/04/28 02:33:20;;;;;;;6.43;6.00;;;;;;;16.91;61.13;94580.97;5091398;28;20692;-74
2022/04/28 02:35:46;;;;;;;6.97;6.27;;;;;;;17.15;60.51;94570.31;5075671;28;20171;-74
2022/04/28 02:38:11;;;;;;;6.63;5.40;;;;;;;17.31;60.07;94566.91;5076851;28;20180;-74
2022/04/28 02:40:37;;;;;;;7.57;5.90;;;;;;;16.92;60.97;94572.03;5075652;28;20204;-74
2022/04/28 02:43:02;;;;;;;5.37;4.93;;;;;;;16.73;61.32;94575.81;5077412;28;20234;-74
2022/04/28 02:45:28;;;;;;;8.83;5.53;;;;;;;16.71;61.51;94570.81;5081822;28;20174;-74
2022/04/28 02:47:53;;;;;;;7.70;6.40;;;;;;;16.98;60.82;94579.00;5077789;28;20186;-74
2022/04/28 02:50:21;;;;;;;6.70;6.20;;;;;;;16.94;60.99;94577.88;5068164;28;20206;-74
2022/04/28 02:52:48;;;;;;;6.90;6.40;;;;;;;16.88;61.47;94578.78;5079921;28;20256;-74
2022/04/28 02:55:14;;;;;;;6.33;5.60;;;;;;;16.78;61.37;94581.22;5080102;28;21040;-74
2022/04/28 02:57:39;;;;;;;6.00;5.50;;;;;;;16.65;62.10;94581.47;5077906;28;20416;-74
2022/04/28 03:00:05;;;;;;;6.50;5.80;;;;;;;16.79;61.31;94577.56;5073021;28;20174;-74
2022/04/28 03:02:31;;;;;;;5.47;5.07;;;;;;;16.50;61.82;94574.84;5073649;28;20170;-74
2022/04/28 03:04:57;;;;;;;7.50;6.90;;;;;;;16.53;62.29;94573.59;5081913;28;20420;-74
2022/04/28 03:12:51;;;;;;;6.87;6.37;;;;;;;16.77;61.46;94584.91;5068278;28;20800;-74
2022/04/28 03:15:17;;;;;;;7.60;6.90;;;;;;;17.10;60.95;94589.53;5072562;28;20413;-74
2022/04/28 03:17:42;;;;;;;10.17;7.37;;;;;;;16.75;61.54;94587.78;5082185;28;20225;-74
2022/04/28 03:20:09;;;;;;;9.07;8.20;;;;;;;17.15;60.55;94596.78;5072215;28;20178;-73
2022/04/28 03:22:36;;;;;;;9.43;8.60;;;;;;;17.09;60.21;94602.97;5084870;28;20192;-73
2022/04/28 03:25:04;;;;;;;7.97;7.37;;;;;;;16.95;60.67;94602.47;5072622;28;20520;-73
2022/04/28 03:27:32;;;;;;;7.50;7.00;;;;;;;17.09;60.27;94614.38;5067417;28;20517;-73
2022/04/28 03:29:58;;;;;;;7.50;7.00;;;;;;;16.93;61.17;94609.81;5075445;28;20420;-73
2022/04/28 03:32:23;;;;;;;13.13;8.97;;;;;;;16.73;61.62;94620.75;5078750;28;20429;-73
2022/04/28 03:34:49;;;;;;;10.90;9.97;;;;;;;16.44;62.14;94625.16;5070056;28;20178;-72
2022/04/28 03:37:15;;;;;;;7.37;6.83;;;;;;;16.11;64.34;94635.28;5071391;28;20181;-74
2022/04/28 03:39:41;;;;;;;8.10;7.50;;;;;;;16.17;63.92;94642.28;5074780;28;20221;-74
2022/04/28 03:42:07;;;;;;;10.53;9.47;;;;;;;16.64;62.40;94645.91;5079578;28;20182;-74
2022/04/28 03:44:34;;;;;;;9.33;8.50;;;;;;;16.52;62.60;94638.84;5068736;28;20463;-73
2022/04/28 03:47:00;;;;;;;10.50;8.80;;;;;;;16.77;61.84;94643.84;5076034;28;20202;-74
2022/04/28 03:49:26;;;;;;;10.00;9.10;;;;;;;16.87;61.18;94645.13;5074578;28;20514;-74
2022/04/28 03:51:51;;;;;;;10.60;9.90;;;;;;;16.52;62.92;94651.22;5079085;28;20417;-74
2022/04/28 03:54:17;;;;;;;11.10;9.47;;;;;;;16.97;61.58;94653.25;5082952;28;20239;-74
2022/04/28 03:56:42;;;;;;;9.83;8.93;;;;;;;17.11;60.76;94651.97;5071067;28;20193;-74
2022/04/28 03:59:08;;;;;;;10.27;9.57;;;;;;;16.91;61.79;94648.91;5075165;28;20173;-73
2022/04/28 04:01:35;;;;;;;10.20;9.40;;;;;;;16.85;62.19;94650.66;5076328;28;20174;-74
2022/04/28 04:04:00;;;;;;;9.57;8.77;;;;;;;17.06;60.84;94651.88;5091077;28;20436;-73
2022/04/28 04:06:26;;;;;;;10.20;9.30;;;;;;;15.95;65.19;94662.34;5079600;28;20411;-73
2022/04/28 04:08:52;;;;;;;12.50;11.40;;;;;;;15.98;65.27;94659.25;5069151;28;20289;-74
2022/04/28 04:11:18;;;;;;;10.97;9.70;;;;;;;15.58;67.04;94665.91;5065822;28;20436;-74
2022/04/28 04:13:45;;;;;;;11.00;10.10;;;;;;;16.28;64.43;94668.94;5069001;28;20238;-74
2022/04/28 04:16:11;;;;;;;11.47;10.40;;;;;;;16.14;64.86;94661.22;5084721;28;20241;-73
2022/04/28 04:18:37;;;;;;;12.10;10.93;;;;;;;16.38;64.13;94663.88;5079216;28;21001;-74
2022/04/28 04:21:02;;;;;;;14.97;13.43;;;;;;;16.51;63.69;94670.78;5075777;28;20427;-74
2022/04/28 04:23:28;;;;;;;12.40;10.93;;;;;;;16.30;63.70;94674.78;5068702;28;20170;-73
2022/04/28 04:25:53;;;;;;;9.73;8.93;;;;;;;15.41;67.28;94670.19;5078390;28;20262;-73
2022/04/28 04:28:19;;;;;;;11.43;10.23;;;;;;;15.66;66.86;94672.69;5070764;28;20193;-73
2022/04/28 04:33:28;;;;;;;12.73;8.47;;;;;;;15.38;67.27;94675.91;5090767;28;20349;-74
2022/04/28 04:35:54;;;;;;;7.37;6.77;;;;;;;15.49;66.76;94687.53;5073508;28;20435;-73
2022/04/28 04:38:19;;;;;;;10.13;9.43;;;;;;;15.51;67.00;94678.38;5077434;28;20265;-73
2022/04/28 04:40:45;;;;;;;8.13;7.33;;;;;;;15.15;67.50;94677.41;5067667;28;20209;-73
2022/04/28 04:43:13;;;;;;;8.10;6.43;;;;;;;15.17;67.32;94683.25;5076718;28;20180;-73
2022/04/28 04:45:42;;;;;;;6.13;5.53;;;;;;;15.38;66.38;94687.25;5073777;28;20179;-73
2022/04/28 04:48:11;;;;;;;6.50;6.00;;;;;;;15.60;65.71;94687.56;5074843;28;20617;-74
2022/04/28 04:50:38;;;;;;;7.20;6.50;;;;;;;15.76;65.06;94698.56;5065788;28;20468;-74
2022/04/28 04:53:04;;;;;;;5.30;4.87;;;;;;;15.35;65.88;94693.00;5071255;28;20466;-73
2022/04/28 04:55:31;;;;;;;4.07;3.77;;;;;;;14.89;67.02;94689.09;5074364;28;20465;-73
2022/04/28 04:57:57;;;;;;;4.83;4.43;;;;;;;15.45;65.42;94705.63;5076744;28;20435;-73
2022/04/28 05:00:23;;;;;;;4.33;4.03;;;;;;;15.06;66.10;94701.66;5075430;28;20484;-74
2022/04/28 05:02:48;;;;;;;4.13;3.87;;;;;;;15.88;63.80;94706.50;5074432;28;20420;-74
2022/04/28 05:05:15;;;;;;;2.80;2.60;;;;;;;15.33;63.85;94702.16;5103465;28;20169;-74
2022/04/28 05:07:41;;;;;;;3.30;3.10;;;;;;;15.06;64.78;94699.81;5065183;28;20205;-74
2022/04/28 05:10:07;;;;;;;3.07;2.87;;;;;;;15.22;64.47;94707.13;5067578;28;20567;-74
2022/04/28 05:12:32;;;;;;;2.10;2.00;;;;;;;14.94;64.30;94715.56;5074222;28;20185;-74
2022/04/28 05:14:58;;;;;;;3.60;3.33;;;;;;;15.27;64.04;94713.56;5063829;28;20240;-73
2022/04/28 05:17:23;;;;;;;3.73;3.37;;;;;;;15.03;64.71;94716.88;5073526;28;20175;-74
2022/04/28 05:19:48;;;;;;;2.67;2.50;;;;;;;15.55;62.71;94726.22;5073407;28;20193;-73
2022/04/28 05:22:14;;;;;;;7.63;2.90;;;;;;;14.78;64.32;94716.16;5102493;28;20558;-73
2022/04/28 05:24:39;;;;;;;1.50;1.40;;;;;;;14.61;65.60;94722.00;5074509;28;20225;-73
2022/04/28 05:27:05;;;;;;;2.93;2.50;;;;;;;15.10;63.39;94729.19;5074057;28;20175;-73
2022/04/28 05:29:30;;;;;;;8.20;2.47;;;;;;;14.80;63.97;94729.91;5067587;28;20297;-74
2022/04/28 05:31:56;;;;;;;2.77;2.57;;;;;;;14.66;64.28;94731.06;5084079;28;20556;-74
2022/04/28 05:34:21;;;;;;;3.03;1.93;;;;;;;14.91;64.59;94736.28;5090030;28;20218;-73
2022/04/28 05:36:48;;;;;;;4.97;2.47;;;;;;;15.18;63.01;94742.88;5087073;28;20177;-74
2022/04/28 05:39:15;;;;;;;5.63;2.67;;;;;;;15.13;62.54;94742.72;5081391;28;20193;-73
2022/04/28 05:41:41;;;;;;;2.03;1.93;;;;;;;14.97;63.36;94736.22;5082812;28;20424;-73
2022/04/28 05:46:52;;;;;;;1.83;1.40;;;;;;;14.39;64.99;94747.88;5067544;28;20190;-74
2022/04/28 05:49:18;;;;;;;3.60;1.73;;;;;;;14.55;64.54;94753.59;5069494;28;20465;-74
2022/04/28 05:51:43;;;;;;;1.97;1.77;;;;;;;14.78;63.79;94755.69;5085389;28;20457;-74
2022/04/28 05:54:09;;;;;;;0.90;0.90;;;;;;;14.25;65.11;94757.69;5074060;28;20627;-74
2022/04/28 05:56:34;;;;;;;2.27;1.87;;;;;;;14.87;63.75;94764.88;5082501;28;20250;-73
2022/04/28 05:59:00;;;;;;;2.10;1.30;;;;;;;14.54;64.63;94758.06;5084523;28;20181;-73
2022/04/28 06:01:25;;;;;;;1.40;1.30;;;;;;;15.00;63.55;94761.31;5076668;28;20181;-73
2022/04/28 06:03:50;;;;;;;3.60;1.90;;;;;;;15.10;62.42;94766.09;5087174;28;20272;-74
2022/04/28 06:06:16;;;;;;;4.33;2.07;;;;;;;14.89;63.42;94757.59;5075385;28;20235;-73
2022/04/28 06:08:41;;;;;;;1.83;1.73;;;;;;;15.20;62.45;94766.41;5078161;28;20217;-73
2022/04/28 06:11:07;;;;;;;1.30;1.20;;;;;;;14.93;63.60;94755.31;5068390;28;20182;-74
2022/04/28 06:13:32;;;;;;;2.07;1.40;;;;;;;15.42;61.89;94767.56;5077083;28;20673;-74
2022/04/28 06:16:05;;;;;;;1.10;1.00;;;;;;;14.68;64.20;94768.53;5067928;28;20194;-74
2022/04/28 06:18:30;;;;;;;1.23;1.23;;;;;;;14.15;66.12;94770.53;5071523;28;20163;-73
2022/04/28 06:20:55;;;;;;;4.93;1.50;;;;;;;14.56;65.49;94769.19;5070609;28;20463;-74
2022/04/28 06:23:21;;;;;;;31.83;4.70;;;;;;;14.53;65.25;94772.28;5084232;28;20720;-74
2022/04/28 06:25:47;;;;;;;4.60;1.67;;;;;;;14.33;65.73;94769.00;5069763;28;20186;-72
2022/04/28 06:28:14;;;;;;;3.63;1.40;;;;;;;13.97;67.21;94765.19;5084618;28;20217;-73
2022/04/28 06:30:39;;;;;;;2.57;1.53;;;;;;;14.26;65.91;94763.75;5065945;28;20242;-73
2022/04/28 06:33:05;;;;;;;7.97;1.90;;;;;;;14.41;65.73;94771.34;5068230;28;20432;-74
2022/04/28 06:35:33;;;;;;;9.70;1.60;;;;;;;14.82;64.07;94786.63;5077310;28;20273;-73
2022/04/28 06:38:00;;;;;;;1.33;1.23;;;;;;;14.33;65.38;94776.91;5072331;28;20194;-73
2022/04/28 06:40:26;;;;;;;7.90;1.90;;;;;;;14.56;64.72;94781.56;5065706;28;20433;-74
2022/04/28 06:42:52;;;;;;;1.80;1.70;;;;;;;14.89;63.82;94780.50;5069973;28;20493;-74
2022/04/28 06:45:18;;;;;;;4.83;1.70;;;;;;;15.29;62.68;94780.06;5067135;28;20166;-73
2022/04/28 06:47:43;;;;;;;1.77;1.20;;;;;;;14.86;63.36;94779.09;5069934;28;20460;-73
2022/04/28 06:50:10;;;;;;;3.53;1.40;;;;;;;14.10;66.04;94775.63;5077279;28;20210;-74
2022/04/28 06:52:36;;;;;;;1.43;1.20;;;;;;;14.28;66.84;94774.88;5073619;28;20566;-73
2022/04/28 06:55:06;;;;;;;2.50;1.43;;;;;;;14.67;65.39;94783.53;5073978;28;20471;-74
2022/04/28 06:57:31;;;;;;;0.70;0.70;;;;;;;14.13;66.45;94783.09;5079335;28;20428;-73
2022/04/28 06:59:57;;;;;;;22.83;3.40;;;;;;;14.48;66.45;94785.28;5085272;28;20434;-74
2022/04/28 07:02:22;;;;;;;4.03;1.70;;;;;;;14.23;66.62;94788.69;5077222;28;20208;-74
2022/04/28 07:04:48;;;;;;;5.47;1.70;;;;;;;14.63;65.52;94787.63;5078669;28;20266;-73
2022/04/28 07:07:14;;;;;;;4.07;2.07;;;;;;;14.81;64.38;94786.84;5073523;28;20186;-73
2022/04/28 07:09:41;;;;;;;2.80;1.37;;;;;;;14.52;66.20;94785.66;5080077;28;20248;-73
2022/04/28 07:12:07;;;;;;;6.93;2.27;;;;;;;14.51;66.59;94798.00;5080679;28;20431;-73
2022/04/28 07:14:35;;;;;;;20.93;3.37;;;;;;;14.40;66.56;94788.19;5070535;28;20589;-74
2022/04/28 07:17:00;;;;;;;6.20;2.87;;;;;;;15.21;63.64;94784.63;5073053;28;20416;-74
2022/04/28 07:19:25;;;;;;;1.97;1.73;;;;;;;15.07;64.44;94800.81;5069406;28;20471;-73
2022/04/28 07:21:51;;;;;;;1.70;1.60;;;;;;;14.55;66.44;94796.56;5073471;28;20192;-74
2022/04/28 07:24:17;;;;;;;7.00;1.70;;;;;;;14.95;64.89;94801.53;5079108;28;20175;-73
2022/04/28 07:26:42;;;;;;;1.80;1.70;;;;;;;14.57;66.67;94802.47;5067431;28;20170;-73
2022/04/28 07:29:08;;;;;;;4.70;1.50;;;;;;;14.80;65.90;94799.22;5075528;28;20186;-74
2022/04/28 07:31:33;;;;;;;3.63;2.87;;;;;;;15.07;64.66;94798.16;5076218;28;20177;-73
2022/04/28 07:33:59;;;;;;;2.67;1.43;;;;;;;14.94;64.44;94788.56;5075302;28;20202;-73
2022/04/28 07:36:24;;;;;;;9.00;2.97;;;;;;;14.90;65.53;94804.00;5081546;28;20166;-74
2022/04/28 07:38:50;;;;;;;1.40;1.30;;;;;;;14.62;65.95;94799.97;5070096;28;20174;-74
2022/04/28 07:41:15;;;;;;;3.37;1.80;;;;;;;14.94;65.06;94791.97;5074895;28;20189;-74
2022/04/28 07:43:41;;;;;;;3.57;1.63;;;;;;;15.41;62.73;94797.59;5080540;28;20506;-73
2022/04/28 07:46:07;;;;;;;1.93;1.83;;;;;;;15.76;61.86;94807.56;5075219;28;20201;-74
2022/04/28 07:48:32;;;;;;;6.77;2.23;;;;;;;15.06;64.09;94801.81;5074006;28;20268;-74
2022/04/28 07:50:57;;;;;;;25.37;4.00;;;;;;;15.64;62.16;94806.66;5075924;28;20177;-73
2022/04/28 07:53:23;;;;;;;2.87;1.43;;;;;;;15.64;61.37;94801.38;5078436;28;20177;-73
2022/04/28 07:56:10;;;;;;;6.90;1.90;;;;;;;15.55;62.31;94810.63;5072083;28;20290;-73
2022/04/28 07:58:37;;;;;;;2.00;1.90;;;;;;;15.62;61.75;94814.78;5073168;28;20166;-74
2022/04/28 08:01:03;;;;;;;12.80;4.50;;;;;;;15.49;62.34;94816.78;5069465;28;20463;-73
2022/04/28 08:03:28;;;;;;;21.23;4.50;;;;;;;15.84;61.17;94818.81;5070228;28;20434;-74
2022/04/28 08:05:54;;;;;;;6.73;1.80;;;;;;;15.51;62.30;94814.72;5073831;28;20511;-73
2022/04/28 08:08:20;;;;;;;9.00;2.33;;;;;;;15.74;61.41;94816.72;5075546;28;20217;-74
2022/04/28 08:10:46;;;;;;;5.20;1.30;;;;;;;15.41;61.70;94820.53;5071055;28;20185;-73
2022/04/28 08:13:12;;;;;;;5.07;2.80;;;;;;;15.37;61.78;94814.88;5073831;28;20423;-73
2022/04/28 08:15:38;;;;;;;5.10;2.13;;;;;;;15.41;61.85;94815.25;5105188;28;20417;-73
2022/04/28 08:18:04;;;;;;;11.17;2.10;;;;;;;15.03;63.88;94821.50;5077315;28;20197;-73
2022/04/28 08:20:30;;;;;;;7.90;1.30;;;;;;;14.59;65.48;94824.13;5071638;28;20176;-74
2022/04/28 08:22:55;;;;;;;1.60;1.27;;;;;;;14.29;66.70;94821.25;5074072;28;20428;-73
2022/04/28 08:25:21;;;;;;;8.90;3.50;;;;;;;14.34;66.08;94820.59;5080813;28;20475;-73
2022/04/28 08:27:46;;;;;;;4.40;2.17;;;;;;;14.69;65.71;94823.63;5071905;28;20186;-73
2022/04/28 08:30:12;;;;;;;3.30;1.97;;;;;;;14.83;64.88;94833.03;5100361;28;20186;-73
2022/04/28 08:32:38;;;;;;;9.53;2.60;;;;;;;14.96;65.02;94833.94;5071768;28;20179;-73
2022/04/28 08:35:06;;;;;;;5.27;2.47;;;;;;;15.14;64.70;94833.16;5070291;28;20166;-73
2022/04/28 08:37:32;;;;;;;2.57;2.37;;;;;;;15.80;62.30;94839.56;5074282;28;20419;-73
2022/04/28 08:39:57;;;;;;;6.67;2.97;;;;;;;15.74;61.87;94829.91;5068775;28;20440;-74
2022/04/28 08:42:26;;;;;;;2.33;1.90;;;;;;;15.86;61.97;94828.13;5080460;28;20170;-73
2022/04/28 08:44:55;;;;;;;5.27;1.97;;;;;;;15.00;63.96;94832.47;5075412;28;21020;-73
2022/04/28 08:47:21;;;;;;;4.33;1.90;;;;;;;14.80;66.07;94830.03;5070891;28;20486;-74
2022/04/28 08:49:49;;;;;;;2.33;2.10;;;;;;;15.27;63.99;94834.84;5066909;28;20449;-73
2022/04/28 08:52:16;;;;;;;2.40;1.90;;;;;;;15.28;63.73;94832.00;5066730;28;20206;-73
2022/04/28 08:54:47;;;;;;;4.10;1.47;;;;;;;15.06;64.12;94836.06;5070527;28;20468;-74
2022/04/28 08:57:16;;;;;;;4.17;2.00;;;;;;;14.96;64.98;94834.75;5079477;28;20435;-73
2022/04/28 08:59:41;;;;;;;12.47;2.63;;;;;;;15.62;63.37;94841.16;5080600;28;20415;-73
2022/04/28 09:02:13;;;;;;;4.20;3.57;;;;;;;15.62;62.87;94832.47;5074681;28;20436;-73
2022/04/28 09:04:38;;;;;;;8.97;4.10;;;;;;;16.02;61.93;94836.47;5112521;28;20170;-74
2022/04/28 09:07:06;;;;;;;4.97;3.03;;;;;;;15.91;61.84;94840.66;5084240;28;20485;-73
2022/04/28 09:09:32;;;;;;;14.17;4.43;;;;;;;16.47;60.18;94839.50;5079935;28;20239;-73
2022/04/28 09:12:00;;;;;;;22.57;3.80;;;;;;;16.15;61.11;94842.38;5079088;28;20419;-73
2022/04/28 09:14:25;;;;;;;2.80;2.43;;;;;;;16.24;61.14;94834.94;5083130;28;20425;-74
2022/04/28 09:17:03;;;;;;;3.20;2.50;;;;;;;16.24;60.57;94839.41;5088853;28;20420;-73
2022/04/28 09:19:35;;;;;;;2.27;2.13;;;;;;;16.31;60.35;94842.75;5081824;28;20174;-73
2022/04/28 09:22:08;;;;;;;5.37;3.00;;;;;;;16.52;59.78;94847.56;5087310;28;20429;-73
2022/04/28 09:24:35;;;;;;;3.47;2.70;;;;;;;16.61;59.71;94844.56;5083514;28;20484;-73
2022/04/28 09:27:00;;;;;;;5.53;3.47;;;;;;;16.29;60.00;94842.97;5080647;28;20475;-73
2022/04/28 09:29:32;;;;;;;2.40;2.30;;;;;;;16.60;59.45;94843.78;5086158;28;20463;-74
2022/04/28 09:31:58;;;;;;;2.77;2.43;;;;;;;15.91;60.91;94835.38;5088162;28;20655;-73
2022/04/28 09:34:25;;;;;;;3.00;2.80;;;;;;;16.27;59.88;94844.25;5086638;28;20448;-73
2022/04/28 09:36:51;;;;;;;2.20;2.00;;;;;;;16.32;59.30;94839.91;5088005;28;20416;-73
2022/04/28 09:42:29;;;;;;;4.63;2.30;;;;;;;16.46;59.32;94839.72;5073866;28;20443;-74
2022/04/28 09:44:51;;;;;;;2.90;2.70;;;;;;;16.99;57.79;94833.63;5082385;28;20403;-74
2022/04/28 09:47:18;;;;;;;6.37;4.23;;;;;;;16.22;60.23;94844.09;5083036;28;21063;-73
2022/04/28 09:49:52;;;;;;;3.13;2.17;;;;;;;15.98;60.64;94838.75;5090279;28;20418;-73
2022/04/28 09:52:24;;;;;;;3.40;1.87;;;;;;;15.84;60.72;94832.84;5069664;28;20480;-73
2022/04/28 09:54:55;;;;;;;3.60;3.30;;;;;;;15.89;60.93;94838.25;5069971;28;20481;-73
2022/04/28 09:57:22;;;;;;;4.70;4.00;;;;;;;16.72;58.59;94841.16;5083984;28;20435;-74
2022/04/28 09:59:49;;;;;;;23.90;6.97;;;;;;;16.50;58.88;94839.03;5082541;28;20776;-73
2022/04/28 10:02:19;;;;;;;9.83;4.00;;;;;;;16.97;57.08;94844.41;5083179;28;20435;-73
2022/04/28 10:04:46;;;;;;;10.80;3.77;;;;;;;16.11;59.58;94833.28;5073277;28;20450;-73
2022/04/28 10:07:15;;;;;;;4.67;2.40;;;;;;;16.43;58.25;94838.34;5076464;28;20492;-73
2022/04/28 10:09:45;;;;;;;4.10;2.57;;;;;;;16.51;57.90;94839.84;5085421;28;20452;-74
2022/04/28 10:12:13;;;;;;;3.10;2.80;;;;;;;16.48;58.00;94832.38;5075047;28;21148;-73
2022/04/28 10:14:40;;;;;;;9.67;3.40;;;;;;;16.45;58.63;94828.34;5077082;28;20440;-73
2022/04/28 10:17:11;;;;;;;3.47;3.03;;;;;;;17.00;56.95;94829.94;5075174;28;20494;-73
2022/04/28 10:19:45;;;;;;;20.87;4.97;;;;;;;16.90;56.41;94833.16;5076747;28;20449;-73
2022/04/28 10:22:17;;;;;;;5.93;3.67;;;;;;;16.72;56.82;94831.38;5083498;28;20446;-73
2022/04/28 10:33:04;;;;;;;5.80;2.93;;;;;;;16.95;56.65;94825.34;5093199;28;20446;-73
2022/04/28 10:35:43;;;;;;;49.60;7.07;;;;;;;16.83;56.61;94826.34;5076567;28;20491;-74
2022/04/28 10:38:31;;;;;;;8.47;3.17;;;;;;;16.92;56.31;94817.06;5069066;28;20435;-74
2022/04/28 10:41:07;;;;;;;20.40;5.50;;;;;;;17.12;55.98;94827.28;5075187;28;20436;-73
2022/04/28 10:43:32;;;;;;;38.63;7.33;;;;;;;16.53;57.15;94822.72;5075149;28;20450;-73
2022/04/28 10:46:24;;;;;;;11.80;4.30;;;;;;;16.48;57.42;94824.44;5083428;28;20427;-73
2022/04/28 10:48:55;;;;;;;6.97;3.23;;;;;;;17.24;55.31;94819.34;5078328;28;20200;-73
2022/04/28 10:51:22;;;;;;;16.30;4.30;;;;;;;17.00;56.29;94819.38;5072597;28;20415;-74
2022/04/28 10:54:09;;;;;;;17.97;6.30;;;;;;;17.34;55.08;94823.03;5096229;28;20426;-74
2022/04/28 10:56:56;;;;;;;34.50;7.00;;;;;;;17.51;53.54;94819.66;5074121;28;20424;-73
2022/04/28 11:01:53;;;;;;;22.00;4.47;;;;;;;18.34;52.01;94820.22;5076121;28;20866;-73
2022/04/28 11:04:23;;;;;;;21.03;5.57;;;;;;;17.75;53.89;94821.19;5069907;28;20420;-74
2022/04/28 11:06:56;;;;;;;4.70;2.90;;;;;;;17.63;54.32;94820.44;5076445;28;20210;-73
2022/04/28 11:09:38;;;;;;;5.63;3.10;;;;;;;18.46;51.27;94818.31;5072806;28;20997;-73
2022/04/28 11:12:16;;;;;;;7.03;3.70;;;;;;;18.29;52.05;94812.97;5081216;28;20452;-73
2022/04/28 11:14:45;;;;;;;66.30;10.63;;;;;;;18.38;51.66;94812.59;5082386;28;20414;-74
2022/04/28 11:17:12;;;;;;;9.80;4.10;;;;;;;18.31;51.75;94810.09;5065484;28;20807;-74
2022/04/28 11:19:38;;;;;;;7.60;3.90;;;;;;;18.43;50.57;94815.34;5065662;28;20895;-73
2022/04/28 11:22:03;;;;;;;4.17;3.80;;;;;;;18.00;52.02;94814.81;5078130;28;20432;-74
2022/04/28 11:24:29;;;;;;;5.20;4.17;;;;;;;18.12;51.34;94812.94;5075727;28;20434;-73
2022/04/28 11:26:58;;;;;;;6.87;3.80;;;;;;;18.10;51.51;94807.09;5071402;28;20201;-73
2022/04/28 11:29:24;;;;;;;6.73;4.60;;;;;;;17.97;52.15;94809.22;5077360;28;20459;-73
2022/04/28 11:31:50;;;;;;;7.30;4.40;;;;;;;18.57;50.64;94813.16;5070183;28;20788;-73
2022/04/28 11:34:17;;;;;;;7.63;4.17;;;;;;;18.82;49.90;94810.16;5073979;28;20170;-73
2022/04/28 11:36:43;;;;;;;4.37;3.87;;;;;;;17.99;51.69;94802.63;5079357;28;20423;-73
2022/04/28 11:39:09;;;;;;;5.40;4.23;;;;;;;18.47;50.24;94817.25;5077386;28;20944;-73
2022/04/28 11:41:40;;;;;;;6.40;5.17;;;;;;;18.31;51.52;94807.44;5072509;28;20434;-73
2022/04/28 11:44:11;;;;;;;5.03;4.53;;;;;;;18.65;50.59;94810.16;5073262;28;20474;-73
2022/04/28 11:46:59;;;;;;;4.97;4.47;;;;;;;18.36;51.13;94807.53;5073693;28;20424;-73
2022/04/28 11:49:32;;;;;;;4.63;3.70;;;;;;;18.23;51.13;94808.66;5079947;28;20462;-73
2022/04/28 11:51:58;;;;;;;4.77;4.37;;;;;;;18.69;50.05;94806.75;5084006;28;20423;-73
2022/04/28 11:54:26;;;;;;;6.10;5.60;;;;;;;18.69;50.41;94805.97;5069358;28;20468;-73
2022/04/28 11:57:07;;;;;;;4.90;4.30;;;;;;;18.76;49.54;94801.28;5076112;28;20171;-74
2022/04/28 11:59:39;;;;;;;8.40;6.07;;;;;;;19.27;49.01;94798.59;5064510;28;20480;-73
2022/04/28 12:02:21;;;;;;;9.00;5.40;;;;;;;18.85;50.00;94799.88;5073813;28;20796;-74
2022/04/28 12:04:47;;;;;;;6.07;5.57;;;;;;;18.50;51.14;94792.94;5077930;28;20504;-74
2022/04/28 12:07:20;;;;;;;6.30;5.30;;;;;;;18.15;52.00;94801.06;5076525;28;20424;-73